Time;durP1;ratioP1;P1;durP2;ratioP2;P2;SDS_P1;SDS_P2;PMS_P1;PMS_P2;Temp;Humidity;BMP_temperature;BMP_pressure;BME280_temperature;BME280_humidity;BME280_pressure;Samples;Min_cycle;Max_cycle;Signal;HPM_P1;HPM_P2
2022/12/14 00:03:47;;;;;;;3.87;1.90;;;;;;;;;;10515570;28;20461;-77
2022/12/14 00:08:51;;;;;;;12.23;4.90;;;;;;;;;;10520459;28;20408;-78
2022/12/14 00:13:56;;;;;;;12.90;4.97;;;;;;;;;;10516814;28;20508;-77
2022/12/14 00:19:04;;;;;;;5.47;2.43;;;;;;;;;;10523677;28;20083;-78
2022/12/14 00:24:06;;;;;;;6.50;2.40;;;;;;;;;;10518289;28;20032;-77
2022/12/14 00:29:11;;;;;;;4.20;2.23;;;;;;;;;;10519592;28;20040;-77
2022/12/14 00:34:14;;;;;;;15.13;5.18;;;;;;;;;;10524175;28;20396;-77
2022/12/14 00:39:27;;;;;;;3.07;2.13;;;;;;;;;;10496629;28;20044;-77
2022/12/14 00:44:32;;;;;;;6.73;2.90;;;;;;;;;;10496207;28;20051;-76
2022/12/14 00:49:35;;;;;;;8.83;3.33;;;;;;;;;;10506633;28;20048;-74
2022/12/14 00:54:39;;;;;;;3.35;1.80;;;;;;;;;;10519465;28;20485;-76
2022/12/14 00:59:48;;;;;;;4.43;2.47;;;;;;;;;;10519000;28;20056;-76
2022/12/14 01:04:51;;;;;;;15.13;5.50;;;;;;;;;;10513822;28;20033;-76
2022/12/14 01:09:55;;;;;;;9.10;3.90;;;;;;;;;;10508966;28;20040;-77
2022/12/14 01:15:01;;;;;;;11.70;4.77;;;;;;;;;;10503755;28;20660;-75
2022/12/14 01:20:06;;;;;;;16.90;5.40;;;;;;;;;;10500708;28;20040;-77
2022/12/14 01:25:10;;;;;;;12.10;4.53;;;;;;;;;;10514497;28;20044;-77
2022/12/14 01:30:19;;;;;;;7.00;2.00;;;;;;;;;;10508970;28;20058;-77
2022/12/14 01:35:22;;;;;;;;;;;;;;;;;;10510714;28;20032;-76
2022/12/14 01:40:25;;;;;;;5.63;1.87;;;;;;;;;;10515940;28;20305;-76
2022/12/14 01:45:29;;;;;;;0.70;0.60;;;;;;;;;;10518090;28;20706;-76
2022/12/14 01:50:34;;;;;;;8.33;3.83;;;;;;;;;;10513956;28;20060;-76
2022/12/14 01:55:39;;;;;;;8.07;3.23;;;;;;;;;;10517075;28;20513;-76
2022/12/14 02:00:43;;;;;;;14.30;6.27;;;;;;;;;;10503310;28;20489;-76
2022/12/14 02:05:48;;;;;;;2.87;1.33;;;;;;;;;;10495259;28;20029;-77
2022/12/14 02:10:53;;;;;;;7.20;3.23;;;;;;;;;;10512734;28;20511;-76
2022/12/14 02:15:57;;;;;;;11.50;4.90;;;;;;;;;;10490343;28;20043;-76
2022/12/14 02:21:11;;;;;;;6.20;2.87;;;;;;;;;;10491507;28;20363;-77
2022/12/14 02:26:22;;;;;;;2.13;1.20;;;;;;;;;;10492437;28;20117;-76
2022/12/14 02:31:31;;;;;;;17.77;6.63;;;;;;;;;;10513465;28;20058;-76
2022/12/14 02:36:35;;;;;;;3.40;2.13;;;;;;;;;;10518625;28;20085;-76
2022/12/14 02:41:38;;;;;;;;;;;;;;;;;;10513370;28;20059;-77
2022/12/14 02:46:43;;;;;;;1.53;1.20;;;;;;;;;;10523995;28;19935;-77
2022/12/14 02:51:54;;;;;;;4.77;1.77;;;;;;;;;;10521112;28;20524;-77
2022/12/14 02:57:01;;;;;;;4.73;2.43;;;;;;;;;;10518065;28;20039;-77
2022/12/14 03:02:05;;;;;;;1.57;1.17;;;;;;;;;;10487178;28;20403;-77
2022/12/14 03:07:24;;;;;;;3.97;2.27;;;;;;;;;;10497327;28;20514;-76
2022/12/14 03:12:27;;;;;;;13.60;4.97;;;;;;;;;;10512799;28;20109;-77
2022/12/14 03:17:33;;;;;;;5.13;2.33;;;;;;;;;;10501658;28;21145;-77
2022/12/14 03:22:38;;;;;;;22.73;5.83;;;;;;;;;;10522350;28;20150;-76
2022/12/14 03:27:43;;;;;;;5.27;2.90;;;;;;;;;;10521538;28;20032;-75
2022/12/14 03:32:49;;;;;;;8.83;4.27;;;;;;;;;;10511567;28;20172;-77
2022/12/14 03:37:54;;;;;;;9.77;4.27;;;;;;;;;;10521558;28;20055;-79
2022/12/14 03:43:00;;;;;;;9.13;3.67;;;;;;;;;;10512884;28;20036;-77
2022/12/14 03:48:08;;;;;;;7.07;3.73;;;;;;;;;;10527341;28;20117;-76
2022/12/14 03:53:14;;;;;;;10.33;4.73;;;;;;;;;;10515656;28;20527;-77
2022/12/14 03:58:35;;;;;;;15.83;5.13;;;;;;;;;;10514526;28;20044;-77
2022/12/14 04:03:47;;;;;;;18.90;6.83;;;;;;;;;;10521247;28;20127;-76
2022/12/14 04:08:52;;;;;;;17.53;5.17;;;;;;;;;;10514120;28;20039;-76
2022/12/14 04:19:22;;;;;;;6.90;2.50;;;;;;;;;;10546441;28;20103;-77
2022/12/14 04:29:59;;;;;;;7.20;3.70;;;;;;;;;;10562801;28;20095;-78
2022/12/14 04:35:08;;;;;;;11.43;4.07;;;;;;;;;;10519818;28;20028;-76
2022/12/14 04:40:14;;;;;;;8.67;3.37;;;;;;;;;;10521067;28;20043;-76
2022/12/14 04:45:19;;;;;;;10.97;4.47;;;;;;;;;;10510093;28;20517;-75
2022/12/14 04:50:26;;;;;;;12.53;4.60;;;;;;;;;;10521166;28;20373;-77
2022/12/14 04:55:32;;;;;;;15.83;4.53;;;;;;;;;;10500769;28;20498;-76
2022/12/14 05:00:36;;;;;;;8.60;3.90;;;;;;;;;;10522736;28;20032;-76
2022/12/14 05:05:46;;;;;;;8.17;2.77;;;;;;;;;;10503919;28;20047;-76
2022/12/14 05:10:51;;;;;;;4.30;2.70;;;;;;;;;;10496289;28;20048;-77
2022/12/14 05:15:55;;;;;;;12.33;5.67;;;;;;;;;;10516774;28;20059;-77
2022/12/14 05:20:58;;;;;;;;;;;;;;;;;;10501132;28;20047;-76
2022/12/14 05:26:03;;;;;;;6.97;3.73;;;;;;;;;;10517471;28;19955;-77
2022/12/14 05:31:07;;;;;;;11.93;3.70;;;;;;;;;;10512488;28;20044;-77
2022/12/14 05:36:15;;;;;;;9.48;4.05;;;;;;;;;;10500062;28;20040;-78
2022/12/14 05:41:20;;;;;;;11.33;4.70;;;;;;;;;;10518855;28;20044;-76
2022/12/14 05:46:23;;;;;;;11.77;3.07;;;;;;;;;;10524556;28;20043;-77
2022/12/14 05:51:27;;;;;;;7.30;3.33;;;;;;;;;;10514549;28;20105;-78
2022/12/14 05:56:31;;;;;;;5.57;3.60;;;;;;;;;;10531243;28;20063;-76
2022/12/14 06:01:36;;;;;;;8.67;4.23;;;;;;;;;;10527058;28;20036;-75
2022/12/14 06:06:40;;;;;;;11.70;4.33;;;;;;;;;;10515585;28;20036;-74
2022/12/14 06:11:46;;;;;;;10.63;5.17;;;;;;;;;;10522907;28;20093;-78
2022/12/14 06:16:51;;;;;;;8.90;3.47;;;;;;;;;;10514748;28;20056;-78
2022/12/14 06:22:05;;;;;;;14.93;4.03;;;;;;;;;;10513995;28;20044;-77
2022/12/14 06:27:16;;;;;;;9.30;3.30;;;;;;;;;;10519805;28;20032;-76
2022/12/14 06:32:23;;;;;;;6.47;3.17;;;;;;;;;;10516044;28;20094;-77
2022/12/14 06:37:27;;;;;;;5.05;2.53;;;;;;;;;;10513962;28;20024;-77
2022/12/14 06:42:34;;;;;;;11.83;5.33;;;;;;;;;;10498661;28;20048;-75
2022/12/14 06:47:37;;;;;;;11.43;4.03;;;;;;;;;;10490147;28;20032;-76
2022/12/14 06:52:40;;;;;;;;;;;;;;;;;;10517433;28;20048;-77
2022/12/14 06:57:47;;;;;;;10.02;4.20;;;;;;;;;;10516987;28;19935;-77
2022/12/14 07:02:51;;;;;;;10.90;4.13;;;;;;;;;;10520499;28;20135;-77
2022/12/14 07:07:56;;;;;;;17.57;5.80;;;;;;;;;;10503087;28;20407;-77
2022/12/14 07:13:00;;;;;;;15.47;4.50;;;;;;;;;;10521526;28;20044;-77
2022/12/14 07:18:03;;;;;;;11.90;5.97;;;;;;;;;;10518093;28;20051;-75
2022/12/14 07:23:06;;;;;;;11.60;4.63;;;;;;;;;;10515065;28;20446;-74
2022/12/14 07:28:11;;;;;;;9.52;4.13;;;;;;;;;;10533285;28;20028;-77
2022/12/14 07:33:14;;;;;;;17.90;7.20;;;;;;;;;;10513666;28;20048;-78
2022/12/14 07:38:17;;;;;;;9.53;4.90;;;;;;;;;;10508384;28;20039;-76
2022/12/14 07:43:23;;;;;;;15.17;6.37;;;;;;;;;;10507369;28;20048;-75
2022/12/14 07:48:29;;;;;;;6.23;2.40;;;;;;;;;;10514752;28;20044;-75
2022/12/14 07:53:32;;;;;;;10.70;3.90;;;;;;;;;;10510485;28;20040;-77
2022/12/14 07:58:38;;;;;;;9.07;4.07;;;;;;;;;;10492809;28;20040;-76
2022/12/14 08:03:41;;;;;;;20.70;8.97;;;;;;;;;;10516096;28;20052;-75
2022/12/14 08:08:45;;;;;;;;;;;;;;;;;;10524956;28;20507;-75
2022/12/14 08:13:52;;;;;;;31.27;13.83;;;;;;;;;;10537738;28;19933;-74
2022/12/14 08:18:56;;;;;;;23.90;10.50;;;;;;;;;;10574229;28;20028;-75
2022/12/14 08:23:59;;;;;;;19.47;7.57;;;;;;;;;;10526132;28;20039;-75
2022/12/14 08:29:06;;;;;;;10.27;4.17;;;;;;;;;;10520263;28;20298;-75
2022/12/14 08:34:09;;;;;;;6.57;2.93;;;;;;;;;;10534317;28;20062;-76
2022/12/14 08:39:14;;;;;;;15.63;5.20;;;;;;;;;;10520304;28;20048;-76
2022/12/14 08:44:19;;;;;;;11.30;4.17;;;;;;;;;;10519977;28;20201;-76
2022/12/14 08:49:22;;;;;;;13.65;5.05;;;;;;;;;;10514170;28;20077;-76
2022/12/14 08:54:32;;;;;;;6.43;3.30;;;;;;;;;;10517958;28;20040;-76
2022/12/14 08:59:36;;;;;;;8.20;4.10;;;;;;;;;;10506563;28;20044;-78
2022/12/14 09:04:59;;;;;;;13.18;5.20;;;;;;;;;;10528479;28;20037;-76
2022/12/14 09:10:02;;;;;;;8.57;3.47;;;;;;;;;;10522621;28;20543;-76
2022/12/14 09:15:09;;;;;;;11.90;5.43;;;;;;;;;;10500305;28;20040;-76
2022/12/14 09:20:13;;;;;;;12.47;6.10;;;;;;;;;;10522501;28;20428;-75
2022/12/14 09:25:18;;;;;;;11.87;4.53;;;;;;;;;;10501949;28;20369;-77
2022/12/14 09:30:24;;;;;;;5.93;3.50;;;;;;;;;;10515028;28;20264;-75
2022/12/14 09:35:29;;;;;;;11.07;4.97;;;;;;;;;;10513273;28;20048;-76
2022/12/14 09:40:35;;;;;;;15.53;6.07;;;;;;;;;;10491079;28;20054;-76
2022/12/14 09:45:50;;;;;;;22.23;8.47;;;;;;;;;;10505823;28;20587;-77
2022/12/14 09:50:55;;;;;;;15.20;6.47;;;;;;;;;;10489028;28;20109;-76
2022/12/14 09:56:06;;;;;;;7.83;3.43;;;;;;;;;;10505162;28;20037;-76
2022/12/14 10:01:22;;;;;;;23.23;5.60;;;;;;;;;;10518980;28;20291;-77
2022/12/14 10:06:31;;;;;;;16.33;5.03;;;;;;;;;;10494389;28;20040;-77
2022/12/14 10:11:38;;;;;;;22.10;7.73;;;;;;;;;;10510513;28;20416;-76
2022/12/14 10:16:51;;;;;;;8.30;4.60;;;;;;;;;;10497428;28;20046;-76
2022/12/14 10:21:57;;;;;;;15.00;5.40;;;;;;;;;;10507442;28;20085;-76
2022/12/14 10:27:01;;;;;;;11.40;4.50;;;;;;;;;;10499544;28;20074;-76
2022/12/14 10:32:06;;;;;;;;;;;;;;;;;;10500625;28;20032;-76
2022/12/14 10:37:24;;;;;;;10.97;5.30;;;;;;;;;;10505478;28;19924;-78
2022/12/14 10:42:30;;;;;;;10.57;3.17;;;;;;;;;;10514396;28;20042;-76
2022/12/14 10:47:37;;;;;;;25.10;8.87;;;;;;;;;;10518209;28;20048;-78
2022/12/14 10:52:42;;;;;;;23.13;8.37;;;;;;;;;;10497149;28;20424;-76
2022/12/14 10:57:46;;;;;;;7.70;4.97;;;;;;;;;;10514463;28;20101;-77
2022/12/14 11:02:50;;;;;;;20.00;8.30;;;;;;;;;;10496368;28;20056;-76
2022/12/14 11:07:52;;;;;;;;;;;;;;;;;;10490338;28;20518;-76
2022/12/14 11:13:02;;;;;;;7.20;2.93;;;;;;;;;;10511483;28;19925;-76
2022/12/14 11:18:06;;;;;;;23.93;7.60;;;;;;;;;;10496542;28;20028;-75
2022/12/14 11:23:17;;;;;;;25.73;8.90;;;;;;;;;;10517618;28;20143;-75
2022/12/14 11:28:36;;;;;;;20.27;7.83;;;;;;;;;;10529771;28;20056;-76
2022/12/14 11:33:41;;;;;;;21.53;8.43;;;;;;;;;;10546378;28;20024;-76
2022/12/14 11:38:53;;;;;;;27.73;9.40;;;;;;;;;;10564482;28;20061;-76
2022/12/14 11:44:02;;;;;;;28.00;9.73;;;;;;;;;;10532892;28;20465;-76
2022/12/14 11:49:05;;;;;;;16.70;6.40;;;;;;;;;;10534482;28;20262;-76
2022/12/14 11:54:08;;;;;;;22.90;9.40;;;;;;;;;;10523066;28;20047;-77
2022/12/14 11:59:15;;;;;;;27.33;9.97;;;;;;;;;;10529373;28;20466;-77
2022/12/14 12:04:20;;;;;;;21.17;8.93;;;;;;;;;;10531700;28;20513;-77
2022/12/14 12:09:22;;;;;;;;;;;;;;;;;;10516749;28;20508;-78
2022/12/14 12:14:31;;;;;;;26.00;10.57;;;;;;;;;;10534928;28;19920;-76
2022/12/14 12:19:37;;;;;;;22.73;7.87;;;;;;;;;;10538211;28;20135;-78
2022/12/14 12:24:46;;;;;;;28.13;10.10;;;;;;;;;;10529713;28;20048;-78
2022/12/14 12:30:19;;;;;;;28.57;11.63;;;;;;;;;;10496178;28;20136;-76
2022/12/14 12:35:29;;;;;;;18.87;6.83;;;;;;;;;;10522420;28;20508;-76
2022/12/14 12:40:34;;;;;;;27.20;10.40;;;;;;;;;;10516275;28;20059;-77
2022/12/14 12:45:42;;;;;;;23.50;9.00;;;;;;;;;;10509791;28;20139;-76
2022/12/14 12:50:46;;;;;;;8.60;4.43;;;;;;;;;;10524022;28;20039;-77
2022/12/14 12:55:53;;;;;;;18.97;7.33;;;;;;;;;;10498530;28;20489;-77
2022/12/14 13:01:01;;;;;;;19.80;8.83;;;;;;;;;;10518841;28;20044;-77
2022/12/14 13:06:07;;;;;;;22.33;8.50;;;;;;;;;;10526087;28;20097;-77
2022/12/14 13:11:18;;;;;;;23.93;8.50;;;;;;;;;;10513759;28;20469;-78
2022/12/14 13:16:34;;;;;;;28.17;10.73;;;;;;;;;;10513216;28;20051;-78
2022/12/14 13:21:43;;;;;;;29.53;11.57;;;;;;;;;;10505632;28;20666;-77
2022/12/14 13:27:16;;;;;;;25.80;11.33;;;;;;;;;;10519831;28;20043;-77
2022/12/14 13:32:31;;;;;;;32.17;11.80;;;;;;;;;;10512712;28;20517;-77
2022/12/14 13:37:48;;;;;;;32.53;12.77;;;;;;;;;;10540414;28;20046;-77
2022/12/14 13:42:58;;;;;;;28.43;11.17;;;;;;;;;;10524331;28;20078;-77
2022/12/14 13:48:06;;;;;;;27.30;10.43;;;;;;;;;;10522688;28;20441;-77
2022/12/14 13:53:15;;;;;;;31.63;11.00;;;;;;;;;;10505800;28;20040;-77
2022/12/14 13:58:22;;;;;;;33.20;11.47;;;;;;;;;;10497221;28;20052;-78
2022/12/14 14:03:54;;;;;;;26.53;10.90;;;;;;;;;;10527431;28;20092;-76
2022/12/14 14:09:02;;;;;;;30.17;11.07;;;;;;;;;;10500566;28;20149;-76
2022/12/14 14:14:18;;;;;;;37.67;13.40;;;;;;;;;;10520877;28;20182;-76
2022/12/14 14:19:25;;;;;;;22.03;8.90;;;;;;;;;;10516646;28;20037;-77
2022/12/14 14:24:28;;;;;;;12.73;5.73;;;;;;;;;;10514426;28;20448;-76
2022/12/14 14:29:35;;;;;;;20.67;7.80;;;;;;;;;;10509201;28;20047;-77
2022/12/14 14:34:46;;;;;;;27.58;8.25;;;;;;;;;;10515119;28;20513;-76
2022/12/14 14:39:55;;;;;;;23.80;9.83;;;;;;;;;;10519140;28;20040;-76
2022/12/14 14:45:23;;;;;;;27.37;10.43;;;;;;;;;;10513631;28;20048;-76
2022/12/14 14:50:30;;;;;;;32.73;9.80;;;;;;;;;;10512207;28;20390;-77
2022/12/14 14:56:00;;;;;;;29.43;10.70;;;;;;;;;;10518783;28;20405;-76
2022/12/14 15:01:18;;;;;;;19.20;8.03;;;;;;;;;;10515081;28;20039;-77
2022/12/14 15:06:24;;;;;;;6.80;3.77;;;;;;;;;;10492424;28;20138;-76
2022/12/14 15:11:31;;;;;;;7.33;3.83;;;;;;;;;;10515284;28;20253;-77
2022/12/14 15:16:41;;;;;;;34.37;12.63;;;;;;;;;;10499727;28;20320;-77
2022/12/14 15:21:53;;;;;;;39.57;13.13;;;;;;;;;;10515053;28;20044;-77
2022/12/14 15:26:56;;;;;;;23.20;7.93;;;;;;;;;;10459255;28;1761573;-77
2022/12/14 15:32:04;;;;;;;33.17;10.93;;;;;;;;;;10514484;28;21434;-77
2022/12/14 15:37:24;;;;;;;68.57;18.33;;;;;;;;;;10499002;28;20044;-76
2022/12/14 15:42:27;;;;;;;30.47;10.63;;;;;;;;;;10526133;28;20112;-76
2022/12/14 15:47:30;;;;;;;33.60;11.00;;;;;;;;;;10506844;28;20032;-77
2022/12/14 15:52:37;;;;;;;32.47;11.88;;;;;;;;;;10513403;28;20145;-76
2022/12/14 15:57:41;;;;;;;33.90;12.53;;;;;;;;;;10522734;28;20036;-76
2022/12/14 16:02:45;;;;;;;31.73;13.03;;;;;;;;;;10521649;28;20465;-76
2022/12/14 16:07:56;;;;;;;35.45;12.93;;;;;;;;;;10513830;28;20044;-76
2022/12/14 16:13:04;;;;;;;40.77;14.13;;;;;;;;;;10517456;28;20062;-76
2022/12/14 16:18:13;;;;;;;36.27;13.00;;;;;;;;;;10516804;28;20039;-76
2022/12/14 16:23:27;;;;;;;34.70;12.00;;;;;;;;;;10501788;28;20556;-78
2022/12/14 16:28:35;;;;;;;42.90;14.33;;;;;;;;;;10524300;28;20044;-78
2022/12/14 16:33:41;;;;;;;35.20;12.93;;;;;;;;;;10520533;28;20135;-78
2022/12/14 16:38:56;;;;;;;33.85;13.63;;;;;;;;;;10518166;28;20113;-78
2022/12/14 16:44:00;;;;;;;34.63;11.67;;;;;;;;;;10523052;28;20044;-78
2022/12/14 16:49:21;;;;;;;29.57;12.03;;;;;;;;;;10518420;28;20063;-76
2022/12/14 16:54:29;;;;;;;32.37;12.43;;;;;;;;;;10524812;28;20032;-78
2022/12/14 16:59:43;;;;;;;33.00;12.83;;;;;;;;;;10508928;28;20036;-76
2022/12/14 17:04:46;;;;;;;33.63;13.30;;;;;;;;;;10500152;28;20047;-75
2022/12/14 17:09:55;;;;;;;32.60;12.63;;;;;;;;;;10505633;28;20044;-76
2022/12/14 17:14:59;;;;;;;29.37;12.30;;;;;;;;;;10528086;28;20044;-75
2022/12/14 17:20:14;;;;;;;36.50;13.63;;;;;;;;;;10506617;28;20063;-77
2022/12/14 17:25:22;;;;;;;27.10;10.23;;;;;;;;;;10532860;28;20050;-76
2022/12/14 17:30:25;;;;;;;24.10;10.40;;;;;;;;;;10525201;28;20033;-76
2022/12/14 17:35:31;;;;;;;38.83;16.03;;;;;;;;;;10504135;28;20052;-78
2022/12/14 17:40:37;;;;;;;34.97;14.80;;;;;;;;;;10521556;28;20091;-76
2022/12/14 17:45:43;;;;;;;32.23;13.93;;;;;;;;;;10507110;28;20050;-76
2022/12/14 17:50:46;;;;;;;;;;;;;;;;;;10518079;28;20040;-76
2022/12/14 17:55:57;;;;;;;40.70;14.10;;;;;;;;;;10526240;28;20185;-76
2022/12/14 18:01:02;;;;;;;38.50;15.43;;;;;;;;;;10537870;28;20126;-77
2022/12/14 18:06:05;;;;;;;;;;;;;;;;;;10497807;28;20101;-76
2022/12/14 18:11:13;;;;;;;40.33;13.70;;;;;;;;;;10502264;28;19928;-76
2022/12/14 18:16:18;;;;;;;36.40;15.27;;;;;;;;;;10524163;28;20039;-78
2022/12/14 18:21:27;;;;;;;47.03;17.93;;;;;;;;;;10509554;28;20048;-78
2022/12/14 18:26:31;;;;;;;50.53;16.40;;;;;;;;;;10508698;28;20036;-76
2022/12/14 18:31:36;;;;;;;40.10;15.13;;;;;;;;;;10535906;28;20052;-76
2022/12/14 18:36:39;;;;;;;38.90;15.63;;;;;;;;;;10495506;28;20059;-78
2022/12/14 18:41:43;;;;;;;40.77;14.80;;;;;;;;;;10503699;28;20482;-77
2022/12/14 18:46:48;;;;;;;31.70;12.93;;;;;;;;;;10513930;28;20046;-77
2022/12/14 18:51:51;;;;;;;32.77;13.57;;;;;;;;;;10525479;28;20094;-78
2022/12/14 18:56:58;;;;;;;31.73;12.67;;;;;;;;;;10524214;28;20489;-78
2022/12/14 19:02:03;;;;;;;29.70;11.60;;;;;;;;;;10494082;28;20052;-76
2022/12/14 19:07:06;;;;;;;27.63;12.73;;;;;;;;;;10516286;28;20038;-76
2022/12/14 19:12:11;;;;;;;33.73;13.07;;;;;;;;;;10508919;28;20448;-78
2022/12/14 19:17:15;;;;;;;29.50;12.07;;;;;;;;;;10518552;28;20086;-77
2022/12/14 19:22:19;;;;;;;30.00;10.63;;;;;;;;;;10502614;28;20072;-77
2022/12/14 19:27:24;;;;;;;26.17;11.13;;;;;;;;;;10498598;28;20072;-77
2022/12/14 19:32:47;;;;;;;28.20;11.13;;;;;;;;;;10520623;28;20125;-77
2022/12/14 19:37:51;;;;;;;27.60;10.27;;;;;;;;;;10525295;28;20105;-77
2022/12/14 19:43:01;;;;;;;26.23;10.60;;;;;;;;;;10525718;28;20611;-77
2022/12/14 19:48:05;;;;;;;29.77;11.47;;;;;;;;;;10530310;28;20055;-77
2022/12/14 19:53:15;;;;;;;32.40;11.70;;;;;;;;;;10520020;28;20498;-76
2022/12/14 19:58:31;;;;;;;25.73;10.57;;;;;;;;;;10516575;28;20048;-76
2022/12/14 20:03:38;;;;;;;29.60;10.20;;;;;;;;;;10517427;28;20094;-76
2022/12/14 20:08:42;;;;;;;25.27;10.17;;;;;;;;;;10498248;28;20059;-78
2022/12/14 20:13:53;;;;;;;27.57;10.67;;;;;;;;;;10521790;28;20055;-77
2022/12/14 20:19:03;;;;;;;24.23;9.97;;;;;;;;;;10522347;28;20083;-76
2022/12/14 20:24:10;;;;;;;19.70;8.03;;;;;;;;;;10522655;28;20051;-76
2022/12/14 20:29:15;;;;;;;21.73;8.43;;;;;;;;;;10500631;28;20040;-76
2022/12/14 20:34:19;;;;;;;21.63;8.17;;;;;;;;;;10520266;28;20426;-76
2022/12/14 20:39:22;;;;;;;16.30;7.07;;;;;;;;;;10523049;28;20438;-77
2022/12/14 20:44:28;;;;;;;21.23;8.20;;;;;;;;;;10524482;28;20040;-76
2022/12/14 20:49:33;;;;;;;19.67;7.30;;;;;;;;;;10523735;28;20082;-76
2022/12/14 20:54:38;;;;;;;20.10;7.90;;;;;;;;;;10524084;28;20557;-78
2022/12/14 20:59:43;;;;;;;20.23;8.37;;;;;;;;;;10503445;28;20039;-77
2022/12/14 21:04:48;;;;;;;18.67;7.83;;;;;;;;;;10522761;28;20140;-77
2022/12/14 21:09:51;;;;;;;;;;;;;;;;;;10524186;28;20198;-78
2022/12/14 21:14:58;;;;;;;21.77;8.02;;;;;;;;;;10516916;28;19924;-77
2022/12/14 21:20:03;;;;;;;14.40;6.57;;;;;;;;;;10521048;28;20852;-77
2022/12/14 21:25:07;;;;;;;21.50;8.77;;;;;;;;;;10526113;28;20470;-78
2022/12/14 21:30:20;;;;;;;21.40;8.23;;;;;;;;;;10527398;28;20586;-79
2022/12/14 21:35:24;;;;;;;21.00;8.03;;;;;;;;;;10509689;28;20055;-78
2022/12/14 21:45:52;;;;;;;21.43;9.23;;;;;;;;;;10545111;28;20047;-76
2022/12/14 21:50:55;;;;;;;25.10;9.77;;;;;;;;;;10567097;28;20032;-76
2022/12/14 21:58:14;;;;;;;24.40;8.90;;;;;;;;;;10522912;28;20039;-76
2022/12/14 22:01:25;;;;;;;22.63;8.03;;;;;;;;;;10530230;28;20047;-76
2022/12/14 22:06:29;;;;;;;22.43;9.13;;;;;;;;;;10530410;28;20084;-76
2022/12/14 22:11:35;;;;;;;23.97;9.70;;;;;;;;;;10505823;28;20155;-76
2022/12/14 22:16:41;;;;;;;20.55;8.90;;;;;;;;;;10502993;28;20722;-76
2022/12/14 22:21:45;;;;;;;24.77;8.37;;;;;;;;;;10512789;28;20039;-75
2022/12/14 22:26:50;;;;;;;23.57;9.43;;;;;;;;;;10500460;28;20036;-76
2022/12/14 22:31:57;;;;;;;22.20;9.03;;;;;;;;;;10505039;28;20470;-77
2022/12/14 22:37:00;;;;;;;26.50;10.03;;;;;;;;;;10514186;28;20458;-76
2022/12/14 22:42:04;;;;;;;23.87;9.37;;;;;;;;;;10502955;28;20481;-76
2022/12/14 22:47:09;;;;;;;22.63;9.53;;;;;;;;;;10518917;28;20044;-76
2022/12/14 22:52:14;;;;;;;24.53;9.93;;;;;;;;;;10520682;28;20070;-76
2022/12/14 22:57:25;;;;;;;24.33;10.37;;;;;;;;;;10495787;28;20044;-77
2022/12/14 23:02:30;;;;;;;24.38;9.35;;;;;;;;;;10519992;28;20039;-76
2022/12/14 23:07:35;;;;;;;26.23;9.97;;;;;;;;;;10517549;28;20050;-76
